createdAt,value
2022-08-17T00:04:12.808Z,22.08
2022-08-17T00:09:48.078Z,22.03
2022-08-17T00:15:20.956Z,21.99
2022-08-17T00:20:52.748Z,21.95
2022-08-17T00:26:43.162Z,21.90
2022-08-17T00:33:11.932Z,21.83
2022-08-17T00:38:10.223Z,21.77
2022-08-17T00:43:50.877Z,21.71
2022-08-17T00:49:25.423Z,21.68
2022-08-17T00:54:57.360Z,21.65
2022-08-17T01:00:36.933Z,21.64
2022-08-17T01:06:09.657Z,21.60
2022-08-17T01:11:41.550Z,21.56
2022-08-17T01:17:13.111Z,21.50
2022-08-17T01:22:44.596Z,21.47
2022-08-17T01:28:33.393Z,21.42
2022-08-17T01:34:10.108Z,21.37
2022-08-17T01:39:50.579Z,21.34
2022-08-17T01:45:26.012Z,21.30
2022-08-17T01:50:57.517Z,21.26
2022-08-17T01:56:31.454Z,21.22
2022-08-17T02:02:02.872Z,21.18
2022-08-17T02:08:00.015Z,21.13
2022-08-17T02:13:29.920Z,21.11
2022-08-17T02:19:01.833Z,21.06
2022-08-17T02:25:01.074Z,21.03
2022-08-17T02:30:50.218Z,20.97
2022-08-17T02:36:22.968Z,20.95
2022-08-17T02:42:03.797Z,20.93
2022-08-17T02:47:36.077Z,20.88
2022-08-17T02:53:07.724Z,20.83
2022-08-17T02:58:39.211Z,20.78
2022-08-17T03:04:10.465Z,20.74
2022-08-17T03:09:42.365Z,20.69
2022-08-17T03:15:28.325Z,20.64
2022-08-17T03:21:01.666Z,20.61
2022-08-17T03:26:33.128Z,20.58
2022-08-17T03:32:12.802Z,20.52
2022-08-17T03:37:44.079Z,20.47
2022-08-17T03:43:15.859Z,20.42
2022-08-17T03:49:06.319Z,20.37
2022-08-17T03:54:55.936Z,20.33
2022-08-17T04:00:28.043Z,20.29
2022-08-17T04:06:02.584Z,20.28
2022-08-17T04:11:35.023Z,20.24
2022-08-17T04:17:06.702Z,20.23
2022-08-17T04:22:38.361Z,20.21
2022-08-17T04:28:16.082Z,20.19
2022-08-17T04:33:47.761Z,20.15
2022-08-17T04:39:19.038Z,20.12
2022-08-17T04:44:50.034Z,20.12
2022-08-17T04:50:21.767Z,20.09
2022-08-17T04:55:54.928Z,20.08
2022-08-17T05:01:28.403Z,19.95
2022-08-17T05:07:01.105Z,19.77
2022-08-17T05:12:32.338Z,19.57
2022-08-17T05:18:04.699Z,19.43
2022-08-17T05:23:42.506Z,19.41
2022-08-17T05:29:15.460Z,19.40
2022-08-17T05:34:46.679Z,19.39
2022-08-17T05:40:20.115Z,19.38
2022-08-17T05:46:23.426Z,19.48
2022-08-17T05:52:04.026Z,19.59
2022-08-17T05:57:35.371Z,19.71
2022-08-17T06:03:44.780Z,19.83
2022-08-17T06:09:33.944Z,20.09
2022-08-17T06:15:12.973Z,20.32
2022-08-17T06:20:54.409Z,20.65
2022-08-17T06:26:38.606Z,20.96
2022-08-17T06:32:15.042Z,21.24
2022-08-17T06:37:57.020Z,21.52
2022-08-17T06:43:47.820Z,21.73
2022-08-17T06:49:30.741Z,21.94
2022-08-17T06:55:05.361Z,22.19
2022-08-17T07:00:42.299Z,22.38
2022-08-17T07:06:19.641Z,22.57
2022-08-17T07:11:52.521Z,22.74
2022-08-17T07:17:36.935Z,22.88
2022-08-17T07:23:34.680Z,23.04
2022-08-17T07:29:06.735Z,23.18
2022-08-17T07:35:11.720Z,23.31
2022-08-17T07:40:58.196Z,23.45
2022-08-17T07:46:52.112Z,23.63
2022-08-17T07:52:50.947Z,23.80
2022-08-17T07:58:24.455Z,23.98
2022-08-17T08:03:55.547Z,24.11
2022-08-17T08:09:41.143Z,24.25
2022-08-17T08:15:21.017Z,24.37
2022-08-17T08:21:08.919Z,24.51
2022-08-17T08:27:33.873Z,24.66
2022-08-17T08:33:29.369Z,24.87
2022-08-17T08:39:07.295Z,25.00
2022-08-17T08:45:01.177Z,25.08
2022-08-17T08:50:41.169Z,25.23
2022-08-17T08:56:21.087Z,25.34
2022-08-17T09:02:08.514Z,25.45
2022-08-17T09:07:51.654Z,25.56
2022-08-17T09:13:44.393Z,25.69
2022-08-17T09:19:21.742Z,25.82
2022-08-17T09:25:07.784Z,25.93
2022-08-17T09:31:03.724Z,26.02
2022-08-17T09:36:41.768Z,26.15
2022-08-17T09:42:32.460Z,26.22
2022-08-17T09:48:18.554Z,26.36
2022-08-17T09:53:50.580Z,26.45
2022-08-17T09:59:50.616Z,26.58
2022-08-17T10:06:06.544Z,26.69
2022-08-17T10:12:02.791Z,26.74
2022-08-17T10:17:38.120Z,26.94
2022-08-17T10:24:02.970Z,27.07
2022-08-17T10:29:49.051Z,27.17
2022-08-17T10:35:45.718Z,27.31
2022-08-17T10:41:20.113Z,27.45
2022-08-17T10:47:11.593Z,27.61
2022-08-17T10:52:43.009Z,27.58
2022-08-17T10:58:22.092Z,27.63
2022-08-17T11:03:56.874Z,27.58
2022-08-17T11:09:51.231Z,27.42
2022-08-17T11:15:51.688Z,27.37
2022-08-17T11:21:26.152Z,27.22
2022-08-17T11:26:59.893Z,27.43
2022-08-17T11:32:52.961Z,27.54
2022-08-17T11:38:41.625Z,27.45
2022-08-17T11:44:38.191Z,27.66
2022-08-17T11:50:54.470Z,27.78
2022-08-17T11:56:41.296Z,27.96
2022-08-17T12:02:35.114Z,28.19
2022-08-17T12:08:18.698Z,28.28
2022-08-17T12:14:00.319Z,28.42
2022-08-17T12:19:37.360Z,28.51
2022-08-17T12:25:21.986Z,28.56
2022-08-17T12:30:54.365Z,28.67
2022-08-17T12:36:28.516Z,28.69
2022-08-17T12:42:02.568Z,28.73
2022-08-17T12:47:37.906Z,28.78
2022-08-17T12:53:15.950Z,28.76
2022-08-17T12:58:53.877Z,28.77
2022-08-17T13:04:26.534Z,28.77
2022-08-17T13:10:01.880Z,28.73
2022-08-17T13:15:44.956Z,28.73
2022-08-17T13:21:19.407Z,28.72
2022-08-17T13:27:08.744Z,28.72
2022-08-17T13:32:45.068Z,28.73
2022-08-17T13:38:40.635Z,28.72
2022-08-17T13:44:36.840Z,28.69
2022-08-17T13:50:20.570Z,28.68
2022-08-17T13:56:37.636Z,28.64
2022-08-17T14:02:01.324Z,28.59
2022-08-17T14:07:33.997Z,28.52
2022-08-17T14:13:06.837Z,28.47
2022-08-17T14:18:56.103Z,28.43
2022-08-17T14:24:35.493Z,28.42
2022-08-17T14:30:08.118Z,28.37
2022-08-17T14:35:44.700Z,28.34
2022-08-17T14:41:22.000Z,28.32
2022-08-17T14:46:53.781Z,28.30
2022-08-17T14:52:25.337Z,28.27
2022-08-17T14:57:56.213Z,28.25
2022-08-17T15:03:27.224Z,28.24
2022-08-17T15:08:58.516Z,28.22
2022-08-17T15:14:29.865Z,28.20
2022-08-17T15:20:01.323Z,28.19
2022-08-17T15:25:33.540Z,28.13
2022-08-17T15:31:06.335Z,28.11
2022-08-17T15:36:38.068Z,28.09
2022-08-17T15:42:12.734Z,28.09
2022-08-17T15:47:44.290Z,28.08
2022-08-17T15:53:15.646Z,28.06
2022-08-17T15:58:48.285Z,28.04
2022-08-17T16:04:26.775Z,28.02
2022-08-17T16:10:01.955Z,28.01
2022-08-17T16:15:33.209Z,27.97
2022-08-17T16:21:27.283Z,27.95
2022-08-17T16:26:58.577Z,27.91
2022-08-17T16:32:31.494Z,27.89
2022-08-17T16:38:07.032Z,27.84
2022-08-17T16:43:38.844Z,27.82
2022-08-17T16:49:10.791Z,27.80
2022-08-17T16:54:55.714Z,27.77
2022-08-17T17:00:26.991Z,27.70
2022-08-17T17:06:18.854Z,27.67
2022-08-17T17:11:53.979Z,27.62
2022-08-17T17:17:29.739Z,27.57
2022-08-17T17:23:00.993Z,27.54
2022-08-17T17:28:51.080Z,27.48
2022-08-17T17:34:22.728Z,27.42
2022-08-17T17:39:56.761Z,27.36
2022-08-17T17:45:38.011Z,27.28
2022-08-17T17:52:02.818Z,27.21
2022-08-17T17:57:37.600Z,27.13
2022-08-17T18:03:28.303Z,27.05
2022-08-17T18:09:20.873Z,26.98
2022-08-17T18:15:10.871Z,26.89
2022-08-17T18:20:55.885Z,26.83
2022-08-17T18:26:33.178Z,26.77
2022-08-17T18:32:32.068Z,26.70
2022-08-17T18:38:23.388Z,26.64
2022-08-17T18:44:01.529Z,26.57
2022-08-17T18:49:33.104Z,26.51
2022-08-17T18:55:17.568Z,26.44
2022-08-17T19:00:49.444Z,26.38
2022-08-17T19:06:29.316Z,26.31
2022-08-17T19:12:02.459Z,26.27
2022-08-17T19:17:48.675Z,26.21
2022-08-17T19:23:40.740Z,26.15
2022-08-17T19:29:34.389Z,26.10
2022-08-17T19:35:10.453Z,26.05
2022-08-17T19:40:59.295Z,26.00
2022-08-17T19:46:59.541Z,25.94
2022-08-17T19:53:00.990Z,25.88
2022-08-17T19:58:57.970Z,25.84
2022-08-17T20:04:31.978Z,25.80
2022-08-17T20:10:10.444Z,25.75
2022-08-17T20:15:43.400Z,25.69
2022-08-17T20:21:22.423Z,25.63
2022-08-17T20:26:59.053Z,25.57
2022-08-17T20:32:35.931Z,25.53
2022-08-17T20:38:13.456Z,25.46
2022-08-17T20:43:55.364Z,25.42
2022-08-17T20:49:53.185Z,25.36
2022-08-17T20:55:40.376Z,25.30
2022-08-17T21:01:39.839Z,25.25
2022-08-17T21:07:43.733Z,25.19
2022-08-17T21:13:15.548Z,25.14
2022-08-17T21:19:07.410Z,25.10
2022-08-17T21:24:47.780Z,25.05
2022-08-17T21:30:30.483Z,25.02
2022-08-17T21:36:12.537Z,24.96
2022-08-17T21:41:53.007Z,24.92
2022-08-17T21:47:29.100Z,24.88
2022-08-17T21:53:02.569Z,24.85
2022-08-17T21:58:40.302Z,24.81
2022-08-17T22:04:11.734Z,24.76
2022-08-17T22:09:48.549Z,24.74
2022-08-17T22:15:20.877Z,24.69
2022-08-17T22:20:53.253Z,24.67
2022-08-17T22:26:28.334Z,24.63
2022-08-17T22:31:59.431Z,24.61
2022-08-17T22:37:30.455Z,24.56
2022-08-17T22:43:03.652Z,24.53
2022-08-17T22:48:35.681Z,24.50
2022-08-17T22:54:35.475Z,24.47
2022-08-17T23:00:28.175Z,24.43
2022-08-17T23:06:08.310Z,24.41
2022-08-17T23:11:48.810Z,24.37
2022-08-17T23:17:21.282Z,24.34
2022-08-17T23:22:53.143Z,24.31
2022-08-17T23:28:24.571Z,24.29
2022-08-17T23:33:56.241Z,24.25
2022-08-17T23:39:28.409Z,24.23
2022-08-17T23:44:59.541Z,24.19
2022-08-17T23:50:31.103Z,24.15
2022-08-17T23:56:09.994Z,24.11
